createdAt,value
2022-09-12T00:02:18.409Z,54.48
2022-09-12T00:04:45.149Z,54.27
2022-09-12T00:07:12.345Z,54.32
2022-09-12T00:09:39.200Z,54.31
2022-09-12T00:12:05.987Z,54.66
2022-09-12T00:14:35.661Z,54.44
2022-09-12T00:17:02.683Z,54.38
2022-09-12T00:19:29.624Z,54.58
2022-09-12T00:21:56.831Z,54.44
2022-09-12T00:24:24.020Z,54.42
2022-09-12T00:26:50.698Z,54.45
2022-09-12T00:29:18.455Z,54.73
2022-09-12T00:31:45.780Z,54.63
2022-09-12T00:34:12.734Z,54.70
2022-09-12T00:36:39.954Z,54.56
2022-09-12T00:39:07.484Z,54.90
2022-09-12T00:41:38.247Z,54.99
2022-09-12T00:44:32.390Z,55.22
2022-09-12T00:47:01.066Z,55.18
2022-09-12T00:49:27.800Z,55.35
2022-09-12T00:52:00.700Z,55.44
2022-09-12T00:54:30.865Z,55.10
2022-09-12T00:57:00.733Z,55.30
2022-09-12T00:59:30.249Z,55.26
2022-09-12T01:01:57.116Z,55.43
2022-09-12T01:04:25.875Z,55.29
2022-09-12T01:06:54.141Z,55.22
2022-09-12T01:09:22.782Z,55.69
2022-09-12T01:11:50.654Z,55.65
2022-09-12T01:14:18.314Z,55.66
2022-09-12T01:16:45.800Z,56.06
2022-09-12T01:19:12.779Z,56.55
2022-09-12T01:21:48.944Z,56.50
2022-09-12T01:24:15.681Z,56.56
2022-09-12T01:27:06.765Z,56.55
2022-09-12T01:29:42.631Z,56.52
2022-09-12T01:32:09.636Z,57.05
2022-09-12T01:34:36.343Z,57.54
2022-09-12T01:37:06.975Z,57.24
2022-09-12T01:39:39.979Z,57.58
2022-09-12T01:42:10.937Z,57.77
2022-09-12T01:44:37.779Z,58.44
2022-09-12T01:47:11.619Z,58.45
2022-09-12T01:49:46.884Z,59.40
2022-09-12T01:52:26.214Z,59.39
2022-09-12T01:54:59.302Z,59.57
2022-09-12T01:57:30.094Z,60.13
2022-09-12T02:00:00.411Z,60.11
2022-09-12T02:02:27.223Z,59.44
2022-09-12T02:05:09.848Z,59.42
2022-09-12T02:07:39.374Z,59.47
2022-09-12T02:10:06.204Z,58.97
2022-09-12T02:12:37.577Z,59.14
2022-09-12T02:15:07.345Z,59.51
2022-09-12T02:17:38.597Z,59.53
2022-09-12T02:20:43.984Z,59.95
2022-09-12T02:23:08.954Z,60.08
2022-09-12T02:25:38.003Z,60.03
2022-09-12T02:28:10.163Z,59.88
2022-09-12T02:30:42.339Z,60.22
2022-09-12T02:33:35.507Z,60.46
2022-09-12T02:36:02.465Z,60.58
2022-09-12T02:38:43.230Z,60.50
2022-09-12T02:41:11.055Z,61.20
2022-09-12T02:43:38.281Z,61.51
2022-09-12T02:46:07.660Z,61.34
2022-09-12T02:48:37.521Z,61.34
2022-09-12T02:51:05.171Z,60.77
2022-09-12T02:53:31.927Z,60.54
2022-09-12T02:55:58.785Z,60.72
2022-09-12T02:58:30.750Z,61.46
2022-09-12T03:00:57.892Z,61.93
2022-09-12T03:03:43.637Z,62.02
2022-09-12T03:06:13.694Z,62.13
2022-09-12T03:08:51.003Z,63.10
2022-09-12T03:11:24.108Z,63.42
2022-09-12T03:14:00.143Z,63.12
2022-09-12T03:16:27.162Z,63.84
2022-09-12T03:19:01.675Z,64.13
2022-09-12T03:21:28.762Z,63.51
2022-09-12T03:24:01.852Z,63.86
2022-09-12T03:26:41.146Z,64.44
2022-09-12T03:29:08.467Z,65.30
2022-09-12T03:31:35.206Z,65.04
2022-09-12T03:34:02.314Z,65.59
2022-09-12T03:36:30.085Z,66.29
2022-09-12T03:38:57.044Z,65.52
2022-09-12T03:41:24.049Z,66.42
2022-09-12T03:43:50.887Z,66.63
2022-09-12T03:46:17.569Z,66.50
2022-09-12T03:48:44.637Z,67.07
2022-09-12T03:51:11.539Z,67.18
2022-09-12T03:53:38.297Z,67.59
2022-09-12T03:56:09.489Z,67.93
2022-09-12T03:58:36.462Z,68.20
2022-09-12T04:01:12.933Z,68.10
2022-09-12T04:03:43.725Z,68.72
2022-09-12T04:06:11.492Z,68.76
2022-09-12T04:08:38.636Z,69.05
2022-09-12T04:11:07.290Z,69.48
2022-09-12T04:13:34.648Z,69.43
2022-09-12T04:16:02.042Z,69.38
2022-09-12T04:18:29.033Z,69.09
2022-09-12T04:20:55.894Z,69.44
2022-09-12T04:23:22.921Z,69.88
2022-09-12T04:25:59.493Z,69.61
2022-09-12T04:28:27.281Z,70.29
2022-09-12T04:30:53.965Z,70.40
2022-09-12T04:33:20.791Z,70.53
2022-09-12T04:35:48.336Z,69.73
2022-09-12T04:38:15.141Z,70.00
2022-09-12T04:40:41.793Z,70.46
2022-09-12T04:43:14.212Z,70.33
2022-09-12T04:45:41.455Z,69.90
2022-09-12T04:48:08.171Z,70.29
2022-09-12T04:50:35.839Z,70.19
2022-09-12T04:53:02.499Z,71.14
2022-09-12T04:55:29.243Z,70.95
2022-09-12T04:57:56.232Z,70.73
2022-09-12T05:00:22.992Z,70.87
2022-09-12T05:02:49.739Z,70.45
2022-09-12T05:05:17.550Z,70.82
2022-09-12T05:07:44.265Z,70.97
2022-09-12T05:10:11.782Z,71.29
2022-09-12T05:12:39.427Z,72.17
2022-09-12T05:15:06.639Z,71.77
2022-09-12T05:17:33.288Z,72.38
2022-09-12T05:20:00.937Z,72.71
2022-09-12T05:22:27.791Z,73.13
2022-09-12T05:24:54.656Z,72.73
2022-09-12T05:27:21.860Z,72.57
2022-09-12T05:29:48.610Z,72.91
2022-09-12T05:32:15.624Z,72.95
2022-09-12T05:34:42.564Z,72.58
2022-09-12T05:37:09.203Z,72.71
2022-09-12T05:39:36.722Z,73.17
2022-09-12T05:42:04.089Z,72.65
2022-09-12T05:44:33.462Z,73.15
2022-09-12T05:47:00.125Z,72.70
2022-09-12T05:49:27.469Z,73.06
2022-09-12T05:51:54.305Z,72.78
2022-09-12T05:54:21.499Z,72.69
2022-09-12T05:56:49.169Z,72.04
2022-09-12T05:59:17.449Z,72.39
2022-09-12T06:01:45.021Z,72.57
2022-09-12T06:04:12.206Z,72.73
2022-09-12T06:06:41.755Z,72.90
2022-09-12T06:09:09.344Z,73.46
2022-09-12T06:11:37.551Z,73.46
2022-09-12T06:14:04.790Z,72.65
2022-09-12T06:16:32.722Z,72.99
2022-09-12T06:19:07.333Z,73.37
2022-09-12T06:21:40.109Z,73.55
2022-09-12T06:24:08.049Z,73.98
2022-09-12T06:26:34.915Z,73.52
2022-09-12T06:29:02.481Z,73.35
2022-09-12T06:31:34.558Z,73.37
2022-09-12T06:34:02.538Z,73.44
2022-09-12T06:36:30.859Z,73.00
2022-09-12T06:39:01.034Z,73.20
2022-09-12T06:41:32.059Z,73.53
2022-09-12T06:43:59.848Z,73.25
2022-09-12T06:46:27.458Z,73.06
2022-09-12T06:48:59.461Z,73.40
2022-09-12T06:51:29.031Z,73.10
2022-09-12T06:53:57.477Z,72.73
2022-09-12T06:56:26.499Z,73.21
2022-09-12T06:58:55.523Z,73.27
2022-09-12T07:01:23.966Z,73.25
2022-09-12T07:03:52.378Z,73.19
2022-09-12T07:06:20.953Z,73.54
2022-09-12T07:08:48.158Z,72.99
2022-09-12T07:11:20.166Z,72.92
2022-09-12T07:13:48.697Z,72.79
2022-09-12T07:16:19.442Z,72.15
2022-09-12T07:18:57.810Z,71.94
2022-09-12T07:21:25.304Z,71.64
2022-09-12T07:23:52.083Z,71.57
2022-09-12T07:26:19.404Z,70.85
2022-09-12T07:28:50.609Z,70.94
2022-09-12T07:31:18.960Z,71.06
2022-09-12T07:33:45.938Z,70.97
2022-09-12T07:36:14.409Z,71.15
2022-09-12T07:38:45.324Z,70.24
2022-09-12T07:41:15.246Z,70.45
2022-09-12T07:43:42.140Z,70.23
2022-09-12T07:46:09.621Z,69.75
2022-09-12T07:48:37.045Z,70.16
2022-09-12T07:51:05.702Z,70.55
2022-09-12T07:53:34.289Z,71.14
2022-09-12T07:56:03.179Z,71.17
2022-09-12T07:58:30.506Z,70.89
2022-09-12T08:01:08.982Z,71.33
2022-09-12T08:03:36.487Z,70.78
2022-09-12T08:06:11.975Z,70.88
2022-09-12T08:08:38.910Z,70.66
2022-09-12T08:11:06.808Z,70.79
2022-09-12T08:13:37.919Z,70.12
2022-09-12T08:16:13.256Z,69.91
2022-09-12T08:18:41.133Z,69.87
2022-09-12T08:21:10.480Z,69.76
2022-09-12T08:23:37.191Z,69.10
2022-09-12T08:26:06.346Z,69.45
2022-09-12T08:28:37.367Z,69.59
2022-09-12T08:31:08.502Z,69.13
2022-09-12T08:33:35.517Z,69.34
2022-09-12T08:36:03.578Z,69.13
2022-09-12T08:38:30.498Z,68.99
2022-09-12T08:41:21.279Z,68.88
2022-09-12T08:43:51.997Z,69.05
2022-09-12T08:46:28.181Z,68.42
2022-09-12T08:48:55.738Z,68.02
2022-09-12T08:51:23.331Z,68.29
2022-09-12T08:53:56.502Z,68.15
2022-09-12T08:56:29.643Z,68.24
2022-09-12T08:59:00.901Z,68.13
2022-09-12T09:01:32.709Z,67.87
2022-09-12T09:03:59.521Z,67.74
2022-09-12T09:06:42.736Z,67.64
2022-09-12T09:09:20.592Z,67.28
2022-09-12T09:12:04.921Z,67.00
2022-09-12T09:14:50.985Z,66.87
2022-09-12T09:17:18.431Z,66.80
2022-09-12T09:19:50.984Z,66.39
2022-09-12T09:22:34.139Z,65.34
2022-09-12T09:25:04.976Z,65.54
2022-09-12T09:27:40.816Z,65.63
2022-09-12T09:30:28.694Z,64.93
2022-09-12T09:33:05.294Z,64.68
2022-09-12T09:36:02.756Z,64.52
2022-09-12T09:38:50.519Z,64.44
2022-09-12T09:41:29.297Z,62.88
2022-09-12T09:44:00.741Z,62.49
2022-09-12T09:46:49.961Z,62.16
2022-09-12T09:49:23.462Z,61.29
2022-09-12T09:51:51.453Z,61.14
2022-09-12T09:54:30.047Z,61.26
2022-09-12T09:57:05.632Z,61.13
2022-09-12T09:59:35.624Z,60.71
2022-09-12T10:02:24.560Z,60.96
2022-09-12T10:05:00.225Z,60.45
2022-09-12T10:07:30.722Z,59.82
2022-09-12T10:10:25.144Z,60.03
2022-09-12T10:13:10.207Z,59.63
2022-09-12T10:16:03.690Z,59.70
2022-09-12T10:18:56.801Z,59.64
2022-09-12T10:21:41.481Z,59.36
2022-09-12T10:24:35.954Z,59.28
2022-09-12T10:27:08.534Z,59.63
2022-09-12T10:29:45.912Z,59.22
2022-09-12T10:32:30.701Z,58.29
2022-09-12T10:35:06.017Z,58.99
2022-09-12T10:37:36.554Z,58.85
2022-09-12T10:40:10.828Z,57.80
2022-09-12T10:42:55.166Z,57.57
2022-09-12T10:45:24.805Z,57.39
2022-09-12T10:47:52.038Z,58.11
2022-09-12T10:50:22.886Z,58.13
2022-09-12T10:53:01.941Z,57.99
2022-09-12T10:55:36.070Z,58.28
2022-09-12T10:58:11.198Z,58.19
2022-09-12T11:00:41.312Z,58.18
2022-09-12T11:03:25.997Z,58.06
2022-09-12T11:05:57.383Z,58.18
2022-09-12T11:08:28.267Z,58.07
2022-09-12T11:11:13.823Z,57.52
2022-09-12T11:13:51.095Z,57.63
2022-09-12T11:16:26.305Z,57.33
2022-09-12T11:19:04.205Z,57.59
2022-09-12T11:21:38.115Z,57.14
2022-09-12T11:24:31.610Z,56.83
2022-09-12T11:27:13.826Z,57.12
2022-09-12T11:29:47.448Z,57.57
2022-09-12T11:32:25.636Z,57.55
2022-09-12T11:34:56.162Z,56.99
2022-09-12T11:37:45.481Z,56.72
2022-09-12T11:40:23.301Z,56.41
2022-09-12T11:42:56.605Z,56.30
2022-09-12T11:45:33.831Z,56.42
2022-09-12T11:48:04.513Z,56.38
2022-09-12T11:50:32.460Z,55.90
2022-09-12T11:53:26.154Z,56.19
2022-09-12T11:56:03.885Z,55.92
2022-09-12T11:58:31.017Z,56.23
2022-09-12T12:01:15.332Z,55.96
2022-09-12T12:03:43.819Z,55.21
2022-09-12T12:06:10.731Z,55.53
2022-09-12T12:08:38.864Z,55.43
2022-09-12T12:11:08.056Z,54.73
2022-09-12T12:13:34.977Z,55.05
2022-09-12T12:16:08.412Z,54.90
2022-09-12T12:18:54.897Z,54.57
2022-09-12T12:21:31.884Z,54.71
2022-09-12T12:24:05.135Z,54.84
2022-09-12T12:26:43.030Z,54.58
2022-09-12T12:29:11.505Z,54.14
2022-09-12T12:31:58.179Z,54.55
2022-09-12T12:34:35.779Z,53.88
2022-09-12T12:37:21.069Z,53.65
2022-09-12T12:39:48.594Z,54.02
2022-09-12T12:42:35.184Z,53.98
2022-09-12T12:45:05.833Z,53.55
2022-09-12T12:47:33.123Z,53.34
2022-09-12T12:50:04.629Z,53.17
2022-09-12T12:52:47.193Z,53.33
2022-09-12T12:55:21.510Z,53.54
2022-09-12T12:57:51.473Z,53.33
2022-09-12T13:00:21.396Z,53.38
2022-09-12T13:02:57.852Z,53.36
2022-09-12T13:05:26.298Z,53.05
2022-09-12T13:07:54.689Z,53.44
2022-09-12T13:10:29.484Z,53.19
2022-09-12T13:12:58.722Z,52.76
2022-09-12T13:15:51.979Z,53.00
2022-09-12T13:18:24.866Z,52.38
2022-09-12T13:20:56.150Z,52.79
2022-09-12T13:23:27.787Z,52.57
2022-09-12T13:26:01.109Z,52.54
2022-09-12T13:28:29.322Z,52.44
2022-09-12T13:31:01.612Z,52.09
2022-09-12T13:33:29.172Z,51.20
2022-09-12T13:36:02.451Z,51.64
2022-09-12T13:38:30.478Z,51.07
2022-09-12T13:40:59.951Z,51.17
2022-09-12T13:43:36.282Z,51.44
2022-09-12T13:46:03.778Z,51.01
2022-09-12T13:48:30.939Z,50.50
2022-09-12T13:51:00.192Z,50.70
2022-09-12T13:53:31.473Z,51.28
2022-09-12T13:55:59.327Z,50.62
2022-09-12T13:58:27.967Z,51.01
2022-09-12T14:01:01.603Z,51.10
2022-09-12T14:03:48.790Z,50.90
2022-09-12T14:06:18.314Z,50.58
2022-09-12T14:08:47.054Z,50.79
2022-09-12T14:11:27.600Z,50.45
2022-09-12T14:17:59.289Z,51.01
2022-09-12T14:20:33.411Z,50.61
2022-09-12T14:23:02.709Z,50.11
2022-09-12T14:25:35.644Z,50.60
2022-09-12T14:28:02.748Z,50.60
2022-09-12T14:30:34.853Z,50.08
2022-09-12T14:33:10.368Z,50.39
2022-09-12T14:35:40.267Z,50.54
2022-09-12T14:38:30.237Z,50.87
2022-09-12T14:41:10.313Z,51.11
2022-09-12T14:43:52.800Z,51.18
2022-09-12T14:46:22.385Z,51.27
2022-09-12T14:52:35.450Z,50.86
2022-09-12T14:55:04.375Z,51.42
2022-09-12T14:57:31.275Z,51.38
2022-09-12T15:00:16.644Z,51.62
2022-09-12T15:02:48.195Z,51.32
2022-09-12T15:05:16.884Z,51.61
2022-09-12T15:07:57.466Z,51.14
2022-09-12T15:10:27.783Z,51.67
2022-09-12T15:13:09.829Z,51.95
2022-09-12T15:15:38.041Z,52.24
2022-09-12T15:18:08.909Z,52.41
2022-09-12T15:20:57.480Z,52.47
2022-09-12T15:23:44.423Z,52.66
2022-09-12T15:26:15.812Z,52.75
2022-09-12T15:28:43.181Z,52.90
2022-09-12T15:31:16.418Z,52.99
2022-09-12T15:33:43.868Z,53.26
2022-09-12T15:36:13.205Z,53.30
2022-09-12T15:38:39.877Z,53.53
2022-09-12T15:41:15.346Z,53.67
2022-09-12T15:43:42.496Z,53.81
2022-09-12T15:46:13.387Z,54.08
2022-09-12T15:48:40.685Z,54.13
2022-09-12T15:51:15.962Z,54.46
2022-09-12T15:53:43.257Z,54.51
2022-09-12T15:56:14.028Z,54.61
2022-09-12T15:59:12.900Z,54.77
2022-09-12T16:04:54.529Z,55.02
2022-09-12T16:07:36.397Z,55.13
2022-09-12T16:10:03.206Z,55.02
2022-09-12T16:15:32.215Z,55.30
2022-09-12T16:18:01.473Z,55.42
2022-09-12T16:20:28.469Z,55.26
2022-09-12T16:22:56.046Z,55.38
2022-09-12T16:25:27.144Z,55.39
2022-09-12T16:27:54.254Z,55.33
2022-09-12T16:30:24.375Z,55.47
2022-09-12T16:33:05.808Z,55.60
2022-09-12T16:35:35.996Z,55.46
2022-09-12T16:38:03.019Z,55.31
2022-09-12T16:40:31.550Z,55.25
2022-09-12T16:42:58.708Z,55.38
2022-09-12T16:45:25.553Z,55.54
2022-09-12T16:47:52.290Z,55.60
2022-09-12T16:50:19.517Z,55.34
2022-09-12T16:52:46.163Z,55.52
2022-09-12T16:55:12.860Z,55.73
2022-09-12T16:57:39.766Z,55.64
2022-09-12T17:00:07.293Z,55.31
2022-09-12T17:02:36.450Z,55.29
2022-09-12T17:05:03.966Z,55.70
2022-09-12T17:07:30.672Z,55.70
2022-09-12T17:09:57.560Z,55.57
2022-09-12T17:12:24.597Z,55.70
2022-09-12T17:14:52.481Z,55.48
2022-09-12T17:17:19.101Z,55.46
2022-09-12T17:19:46.150Z,55.27
2022-09-12T17:22:12.799Z,55.62
2022-09-12T17:24:40.476Z,55.34
2022-09-12T17:27:07.892Z,55.58
2022-09-12T17:29:37.186Z,55.75
2022-09-12T17:32:03.898Z,55.42
2022-09-12T17:34:31.035Z,55.48
2022-09-12T17:37:02.169Z,55.63
2022-09-12T17:39:31.362Z,55.74
2022-09-12T17:41:59.130Z,55.61
2022-09-12T17:44:25.849Z,55.74
2022-09-12T17:46:52.509Z,55.97
2022-09-12T17:49:22.177Z,55.95
2022-09-12T17:51:48.840Z,56.24
2022-09-12T17:54:16.803Z,56.21
2022-09-12T17:56:46.009Z,55.92
2022-09-12T17:59:17.472Z,56.34
2022-09-12T18:02:03.484Z,56.48
2022-09-12T18:04:31.066Z,56.46
2022-09-12T18:07:00.293Z,56.52
2022-09-12T18:09:27.494Z,56.51
2022-09-12T18:11:58.537Z,56.55
2022-09-12T18:14:27.860Z,56.26
2022-09-12T18:16:57.055Z,56.51
2022-09-12T18:38:38.534Z,56.87
